Time;durP1;ratioP1;P1;durP2;ratioP2;P2;SDS_P1;SDS_P2;PMS_P1;PMS_P2;Temp;Humidity;BMP_temperature;BMP_pressure;BME280_temperature;BME280_humidity;BME280_pressure;Samples;Min_cycle;Max_cycle;Signal;HPM_P1;HPM_P2
2023/04/08 00:01:49;;;;;;;15.93;9.57;;;2.10;70.50;;;;;;5085121;28;20096;-75
2023/04/08 00:04:15;;;;;;;16.10;10.27;;;2.10;70.80;;;;;;5091071;28;20064;-75
2023/04/08 00:06:41;;;;;;;16.00;10.70;;;2.10;71.00;;;;;;5055296;28;20497;-76
2023/04/08 00:09:06;;;;;;;15.57;11.10;;;2.10;71.00;;;;;;5055886;28;20520;-76
2023/04/08 00:11:32;;;;;;;14.40;11.53;;;2.10;71.00;;;;;;5088678;28;20043;-75
2023/04/08 00:13:59;;;;;;;15.07;11.97;;;2.10;71.10;;;;;;5106315;28;20040;-76
2023/04/08 00:16:25;;;;;;;18.27;12.37;;;2.10;71.50;;;;;;5076267;28;20533;-75
2023/04/08 00:18:50;;;;;;;17.13;12.60;;;2.10;71.40;;;;;;5103629;28;20067;-75
2023/04/08 00:21:16;;;;;;;21.30;13.47;;;2.10;71.60;;;;;;5073182;28;20063;-76
2023/04/08 00:23:42;;;;;;;18.13;12.90;;;2.10;71.70;;;;;;5071986;28;20055;-76
2023/04/08 00:26:08;;;;;;;21.87;13.43;;;2.10;71.50;;;;;;5063142;28;20393;-75
2023/04/08 00:28:35;;;;;;;18.83;12.07;;;2.00;71.50;;;;;;5028703;28;20051;-75
2023/04/08 00:31:00;;;;;;;19.03;13.60;;;2.00;71.70;;;;;;5083511;28;20177;-76
2023/04/08 00:33:26;;;;;;;19.50;12.90;;;2.00;71.80;;;;;;5064471;28;20524;-75
2023/04/08 00:35:52;;;;;;;19.23;13.93;;;2.00;71.80;;;;;;5092713;28;20055;-76
2023/04/08 00:38:17;;;;;;;22.20;13.70;;;1.90;71.70;;;;;;5095045;28;20039;-75
2023/04/08 00:40:43;;;;;;;20.73;13.83;;;1.90;71.80;;;;;;5092846;28;20047;-76
2023/04/08 00:43:09;;;;;;;22.57;14.30;;;1.90;71.80;;;;;;5075065;28;20082;-75
2023/04/08 00:45:35;;;;;;;24.23;14.83;;;1.80;72.00;;;;;;5093508;28;20118;-76
2023/04/08 00:48:02;;;;;;;20.20;13.97;;;1.80;72.10;;;;;;5095964;28;20055;-75
2023/04/08 00:50:28;;;;;;;21.63;15.43;;;1.80;72.30;;;;;;5070070;28;20124;-76
2023/04/08 00:52:53;;;;;;;21.07;15.27;;;1.80;72.40;;;;;;5073035;28;20180;-76
2023/04/08 00:55:19;;;;;;;21.67;15.23;;;1.80;72.30;;;;;;5090253;28;20036;-75
2023/04/08 00:57:45;;;;;;;22.97;15.80;;;1.80;72.60;;;;;;5022828;28;20529;-75
2023/04/08 01:00:12;;;;;;;26.60;17.73;;;1.80;72.60;;;;;;5075579;28;20721;-76
2023/04/08 01:02:47;;;;;;;23.60;15.43;;;1.80;73.00;;;;;;5069080;28;20044;-75
2023/04/08 01:05:37;;;;;;;26.17;17.03;;;1.80;73.00;;;;;;5062240;28;20059;-75
2023/04/08 01:08:05;;;;;;;27.77;17.63;;;1.80;73.00;;;;;;5075527;28;20105;-75
2023/04/08 01:10:33;;;;;;;25.00;17.27;;;1.80;72.90;;;;;;5091550;28;20432;-75
2023/04/08 01:13:04;;;;;;;26.40;18.03;;;1.80;73.00;;;;;;5090657;28;20052;-75
2023/04/08 01:15:32;;;;;;;29.38;17.65;;;1.80;73.10;;;;;;5077519;28;20048;-76
2023/04/08 01:17:59;;;;;;;23.33;16.83;;;1.80;73.30;;;;;;5081195;27;20491;-75
2023/04/08 01:20:26;;;;;;;26.23;18.43;;;1.80;73.00;;;;;;5080587;28;20500;-75
2023/04/08 01:23:07;;;;;;;28.00;18.67;;;1.80;73.10;;;;;;5071789;28;20570;-75
2023/04/08 01:25:37;;;;;;;22.15;14.82;;;1.80;73.40;;;;;;5090395;28;20043;-75
2023/04/08 01:28:10;;;;;;;27.67;19.13;;;1.80;73.70;;;;;;5074463;28;20044;-75
2023/04/08 01:30:38;;;;;;;28.80;18.80;;;1.80;73.40;;;;;;5056130;28;20055;-76
2023/04/08 01:33:05;;;;;;;28.77;19.23;;;1.70;73.40;;;;;;5088353;28;20056;-76
2023/04/08 01:35:31;;;;;;;27.17;20.17;;;1.70;73.50;;;;;;5091206;28;20127;-75
2023/04/08 01:37:58;;;;;;;29.10;19.40;;;1.70;73.70;;;;;;5039877;28;20069;-76
2023/04/08 01:40:24;;;;;;;33.43;20.00;;;1.70;73.50;;;;;;5079990;28;20054;-75
2023/04/08 01:42:54;;;;;;;29.17;20.47;;;1.70;73.50;;;;;;5109731;28;20048;-75
2023/04/08 01:45:22;;;;;;;30.10;20.03;;;1.60;73.50;;;;;;5110949;28;20538;-75
2023/04/08 01:47:48;;;;;;;32.63;20.43;;;1.60;73.80;;;;;;5074383;28;20051;-75
2023/04/08 01:50:15;;;;;;;31.40;20.87;;;1.60;73.70;;;;;;5062578;28;20108;-75
2023/04/08 01:52:47;;;;;;;30.47;21.67;;;1.60;73.80;;;;;;5093278;28;20093;-75
2023/04/08 01:55:12;;;;;;;28.77;19.98;;;1.50;73.80;;;;;;5071263;28;20051;-75
2023/04/08 01:57:43;;;;;;;33.13;22.17;;;1.50;73.80;;;;;;5055229;28;20047;-75
2023/04/08 02:00:11;;;;;;;29.70;20.57;;;1.50;73.70;;;;;;5070634;28;20732;-76
2023/04/08 02:02:39;;;;;;;35.67;23.93;;;1.50;73.80;;;;;;5084564;28;20047;-76
2023/04/08 02:05:05;;;;;;;37.77;23.30;;;1.50;73.80;;;;;;5090338;28;20059;-75
2023/04/08 02:07:31;;;;;;;35.63;23.67;;;1.50;73.90;;;;;;5074620;28;20052;-75
2023/04/08 02:09:57;;;;;;;35.33;23.97;;;1.50;73.90;;;;;;5074685;28;20551;-76
2023/04/08 02:12:24;;;;;;;30.87;23.20;;;1.50;74.00;;;;;;5089000;28;20055;-75
2023/04/08 02:14:50;;;;;;;37.33;23.73;;;1.50;74.00;;;;;;5091438;28;20046;-75
2023/04/08 02:17:33;;;;;;;36.30;25.10;;;1.50;74.10;;;;;;5056575;28;20371;-75
2023/04/08 02:20:05;;;;;;;41.27;26.13;;;1.40;74.00;;;;;;5054683;28;20398;-76
2023/04/08 02:22:48;;;;;;;36.90;25.47;;;1.50;74.10;;;;;;5069556;28;20047;-75
2023/04/08 02:25:15;;;;;;;39.97;25.30;;;1.40;74.10;;;;;;5065344;28;20596;-76
2023/04/08 02:27:45;;;;;;;38.33;25.20;;;1.40;74.20;;;;;;5061241;28;20048;-76
2023/04/08 02:30:12;;;;;;;35.50;25.20;;;1.40;74.10;;;;;;5102523;28;20509;-76
2023/04/08 02:32:38;;;;;;;39.30;25.90;;;1.40;74.10;;;;;;5108552;27;20059;-76
2023/04/08 02:35:05;;;;;;;39.27;25.97;;;1.40;74.30;;;;;;5088086;28;20497;-75
2023/04/08 02:37:31;;;;;;;38.27;26.03;;;1.40;74.30;;;;;;5093267;28;20050;-76
2023/04/08 02:39:57;;;;;;;41.73;28.40;;;1.40;74.20;;;;;;5090497;28;20044;-75
2023/04/08 02:42:23;;;;;;;39.97;26.63;;;1.30;74.30;;;;;;5072231;28;20857;-75
2023/04/08 02:44:49;;;;;;;47.23;28.70;;;1.30;74.30;;;;;;5090379;28;20047;-75
2023/04/08 02:47:15;;;;;;;47.13;29.47;;;1.30;74.40;;;;;;5037684;28;20052;-75
2023/04/08 02:49:41;;;;;;;48.13;29.57;;;1.30;74.70;;;;;;5070070;28;20097;-75
2023/04/08 02:52:07;;;;;;;46.17;30.77;;;1.30;74.60;;;;;;5063361;28;20130;-75
2023/04/08 02:54:32;;;;;;;44.23;31.07;;;1.20;74.50;;;;;;5088102;28;20075;-75
2023/04/08 02:56:58;;;;;;;51.13;32.53;;;1.20;74.70;;;;;;5042056;28;20463;-76
2023/04/08 02:59:24;;;;;;;51.80;30.87;;;1.20;74.60;;;;;;5088850;28;20130;-76
2023/04/08 03:01:50;;;;;;;50.53;30.83;;;1.20;74.60;;;;;;5078059;28;20505;-75
2023/04/08 03:04:15;;;;;;;46.93;30.93;;;1.20;74.60;;;;;;5058041;28;20051;-76
2023/04/08 03:06:41;;;;;;;45.23;31.07;;;1.20;74.60;;;;;;5076987;28;20050;-75
2023/04/08 03:09:07;;;;;;;46.97;30.67;;;1.20;74.60;;;;;;5086734;28;20074;-75
2023/04/08 03:11:33;;;;;;;48.87;31.43;;;1.20;74.60;;;;;;5090111;28;20092;-76
2023/04/08 03:13:59;;;;;;;48.83;31.67;;;1.20;74.70;;;;;;5087847;28;20055;-75
2023/04/08 03:16:25;;;;;;;53.43;33.13;;;1.10;74.70;;;;;;5085576;28;20984;-75
2023/04/08 03:18:50;;;;;;;53.53;32.33;;;1.10;74.70;;;;;;5083028;28;20125;-76
2023/04/08 03:21:16;;;;;;;49.37;31.57;;;1.10;74.80;;;;;;5036754;28;20151;-75
2023/04/08 03:23:43;;;;;;;56.07;34.63;;;1.10;75.00;;;;;;5086659;28;20565;-75
2023/04/08 03:26:08;;;;;;;51.97;32.07;;;1.20;75.00;;;;;;5074012;28;20053;-74
2023/04/08 03:28:34;;;;;;;54.73;34.07;;;1.20;75.00;;;;;;5066590;28;20048;-75
2023/04/08 03:31:01;;;;;;;55.33;34.73;;;1.20;75.00;;;;;;5069468;28;20047;-76
2023/04/08 03:33:27;;;;;;;58.23;34.97;;;1.20;75.10;;;;;;5107281;28;20054;-76
2023/04/08 03:35:53;;;;;;;58.40;36.20;;;1.20;75.00;;;;;;5089297;28;20134;-76
2023/04/08 03:38:19;;;;;;;57.03;37.17;;;1.20;75.00;;;;;;5039609;28;20105;-75
2023/04/08 03:40:45;;;;;;;55.67;35.67;;;1.30;75.30;;;;;;5069936;28;20055;-75
2023/04/08 03:43:11;;;;;;;59.17;36.33;;;1.40;75.40;;;;;;5090211;28;20152;-75
2023/04/08 03:45:37;;;;;;;59.17;36.83;;;1.40;75.40;;;;;;5088776;28;20131;-75
2023/04/08 03:48:03;;;;;;;51.77;33.67;;;1.40;75.40;;;;;;5071357;28;20082;-75
2023/04/08 03:50:29;;;;;;;59.87;35.70;;;1.40;75.30;;;;;;5087245;28;20764;-75
2023/04/08 03:52:55;;;;;;;61.50;35.83;;;1.40;75.20;;;;;;5084174;28;20059;-75
2023/04/08 03:55:20;;;;;;;55.80;34.73;;;1.20;75.30;;;;;;5052818;28;20052;-75
2023/04/08 03:57:46;;;;;;;53.93;34.33;;;1.20;75.30;;;;;;5057703;28;20119;-75
2023/04/08 04:00:13;;;;;;;60.40;35.73;;;1.20;75.30;;;;;;5089262;28;20509;-76
2023/04/08 04:02:38;;;;;;;58.53;37.13;;;1.20;75.30;;;;;;5078786;28;20048;-76
2023/04/08 04:05:04;;;;;;;55.97;35.03;;;1.20;75.40;;;;;;5059353;28;20048;-76
2023/04/08 04:07:30;;;;;;;63.03;38.20;;;1.20;75.30;;;;;;5071345;28;20696;-76
2023/04/08 04:09:56;;;;;;;58.60;35.97;;;1.20;75.40;;;;;;5101672;28;20051;-75
2023/04/08 04:12:22;;;;;;;57.30;35.90;;;1.20;75.30;;;;;;5088471;28;20159;-76
2023/04/08 04:14:48;;;;;;;53.23;34.10;;;1.20;75.30;;;;;;5088109;28;20043;-75
2023/04/08 04:17:14;;;;;;;57.03;36.80;;;1.20;75.40;;;;;;5062306;28;20069;-76
2023/04/08 04:19:40;;;;;;;60.53;37.93;;;1.10;75.50;;;;;;5084367;28;20071;-75
2023/04/08 04:22:05;;;;;;;62.57;36.83;;;1.10;75.40;;;;;;5067355;28;20054;-75
2023/04/08 04:24:31;;;;;;;62.83;38.23;;;1.10;75.40;;;;;;5088159;28;20044;-76
2023/04/08 04:26:57;;;;;;;64.53;39.80;;;1.10;75.40;;;;;;5091408;28;20054;-76
2023/04/08 04:29:23;;;;;;;66.60;38.27;;;1.10;75.60;;;;;;5072408;28;20413;-76
2023/04/08 04:31:48;;;;;;;68.90;41.47;;;1.20;75.70;;;;;;5075317;28;20073;-75
2023/04/08 04:34:14;;;;;;;73.07;41.33;;;1.20;75.70;;;;;;5087937;28;20051;-75
2023/04/08 04:36:40;;;;;;;69.73;39.30;;;1.20;75.70;;;;;;5075231;28;20520;-75
2023/04/08 04:39:06;;;;;;;62.40;40.10;;;1.30;75.80;;;;;;5068364;28;20048;-75
2023/04/08 04:41:31;;;;;;;70.37;40.53;;;1.30;75.70;;;;;;5086401;28;20056;-76
2023/04/08 04:43:57;;;;;;;63.37;39.20;;;1.30;75.70;;;;;;5084822;28;20052;-76
2023/04/08 04:46:23;;;;;;;66.57;40.23;;;1.30;75.80;;;;;;5039575;28;20057;-76
2023/04/08 04:48:48;;;;;;;62.40;37.33;;;1.20;75.70;;;;;;5077890;28;20079;-76
2023/04/08 04:51:14;;;;;;;68.67;40.33;;;1.30;75.80;;;;;;5106338;28;20043;-76
2023/04/08 04:53:40;;;;;;;62.43;39.63;;;1.20;75.80;;;;;;5086625;28;20460;-76
2023/04/08 04:56:05;;;;;;;61.93;40.37;;;1.20;75.80;;;;;;5085161;28;20092;-74
2023/04/08 04:58:31;;;;;;;69.53;41.70;;;1.30;75.80;;;;;;5076208;28;20197;-76
2023/04/08 05:00:57;;;;;;;72.10;43.37;;;1.40;76.00;;;;;;5106704;28;20048;-76
2023/04/08 05:03:23;;;;;;;69.93;42.40;;;1.40;76.20;;;;;;5102321;28;20044;-76
2023/04/08 05:05:54;;;;;;;69.00;41.57;;;1.50;76.10;;;;;;5107878;28;20092;-76
2023/04/08 05:08:20;;;;;;;77.13;44.53;;;1.50;76.20;;;;;;5072974;28;20044;-76
2023/04/08 05:10:48;;;;;;;78.47;45.30;;;1.60;76.10;;;;;;5090705;28;20058;-76
2023/04/08 05:13:14;;;;;;;70.70;45.30;;;1.70;76.20;;;;;;5070862;28;20047;-76
2023/04/08 05:15:40;;;;;;;78.00;45.30;;;1.70;76.10;;;;;;5091576;28;20039;-76
2023/04/08 05:18:06;;;;;;;71.20;44.33;;;1.80;76.00;;;;;;5090769;27;20048;-76
2023/04/08 05:20:31;;;;;;;67.67;44.27;;;1.80;76.20;;;;;;5109960;28;20489;-76
2023/04/08 05:22:57;;;;;;;67.00;42.03;;;1.80;76.00;;;;;;5108989;28;20129;-76
2023/04/08 05:25:23;;;;;;;63.10;41.13;;;1.70;75.90;;;;;;5089658;28;20061;-76
2023/04/08 05:27:48;;;;;;;62.70;39.43;;;1.70;75.80;;;;;;5077557;28;20090;-76
2023/04/08 05:30:15;;;;;;;64.53;41.40;;;1.70;75.90;;;;;;5089747;28;20047;-76
2023/04/08 05:32:40;;;;;;;69.07;42.43;;;1.70;75.90;;;;;;5102215;28;20048;-76
2023/04/08 05:35:06;;;;;;;64.07;41.20;;;1.60;76.00;;;;;;5110062;28;20454;-76
2023/04/08 05:37:32;;;;;;;69.03;42.17;;;1.60;76.10;;;;;;5075555;28;20128;-76
2023/04/08 05:39:58;;;;;;;70.20;41.23;;;1.70;76.10;;;;;;5072343;28;20498;-76
2023/04/08 05:42:23;;;;;;;71.03;41.87;;;1.70;76.20;;;;;;5090572;28;20541;-76
2023/04/08 05:44:49;;;;;;;67.83;42.03;;;1.80;76.30;;;;;;5091371;28;20087;-76
2023/04/08 05:47:15;;;;;;;73.23;42.87;;;1.80;76.20;;;;;;5093684;28;20413;-76
2023/04/08 05:49:40;;;;;;;73.13;43.37;;;1.80;76.20;;;;;;5104840;28;20518;-76
2023/04/08 05:52:06;;;;;;;71.57;43.80;;;1.90;76.30;;;;;;5078383;28;20080;-76
2023/04/08 05:54:32;;;;;;;71.13;43.47;;;2.00;76.40;;;;;;5089286;28;20090;-76
2023/04/08 05:56:57;;;;;;;77.50;45.07;;;2.00;76.50;;;;;;5074419;28;20091;-76
2023/04/08 05:59:23;;;;;;;77.30;43.60;;;2.10;76.40;;;;;;5076674;28;20046;-76
2023/04/08 06:01:49;;;;;;;73.30;43.70;;;2.20;76.40;;;;;;5067136;28;20047;-76
2023/04/08 06:04:16;;;;;;;73.53;43.37;;;2.20;76.60;;;;;;5082463;28;20429;-76
2023/04/08 06:06:42;;;;;;;78.20;45.13;;;2.30;76.50;;;;;;5086886;28;20048;-76
2023/04/08 06:09:09;;;;;;;70.10;43.73;;;2.40;76.80;;;;;;5069982;28;20453;-76
2023/04/08 06:11:34;;;;;;;73.07;42.13;;;2.40;76.60;;;;;;5072524;28;20056;-76
2023/04/08 06:14:00;;;;;;;71.40;43.70;;;2.50;76.40;;;;;;5092503;28;20040;-76
2023/04/08 06:16:26;;;;;;;68.13;44.37;;;2.60;76.70;;;;;;5087051;28;20044;-76
2023/04/08 06:18:52;;;;;;;73.17;44.57;;;2.70;76.70;;;;;;5098602;27;20063;-76
2023/04/08 06:21:18;;;;;;;67.27;41.93;;;2.80;76.70;;;;;;5091411;28;20169;-76
2023/04/08 06:23:43;;;;;;;65.93;41.90;;;2.90;76.70;;;;;;5090624;28;20143;-76
2023/04/08 06:26:09;;;;;;;62.80;39.73;;;3.00;76.60;;;;;;5095754;28;20541;-75
2023/04/08 06:28:35;;;;;;;64.30;41.30;;;3.00;76.60;;;;;;5067594;28;20101;-76
2023/04/08 06:31:00;;;;;;;64.83;41.17;;;3.10;76.90;;;;;;5071743;28;20050;-76
2023/04/08 06:33:26;;;;;;;64.43;41.00;;;3.20;76.90;;;;;;5092052;28;20051;-76
2023/04/08 06:36:04;;;;;;;65.67;38.43;;;3.30;77.00;;;;;;5111260;28;20066;-76
2023/04/08 06:38:30;;;;;;;66.40;41.73;;;3.50;76.90;;;;;;5078366;28;20051;-76
2023/04/08 06:41:01;;;;;;;62.60;41.67;;;3.60;77.10;;;;;;5110517;28;20177;-76
2023/04/08 06:43:27;;;;;;;74.20;42.20;;;3.70;77.10;;;;;;5092343;28;20079;-76
2023/04/08 06:45:53;;;;;;;63.73;41.17;;;4.00;77.30;;;;;;5110719;28;20567;-76
2023/04/08 06:48:18;;;;;;;63.73;40.97;;;4.40;78.00;;;;;;5076202;28;20532;-76
2023/04/08 06:50:44;;;;;;;60.63;40.47;;;4.70;78.10;;;;;;5110391;28;20135;-76
2023/04/08 06:53:10;;;;;;;55.60;38.73;;;5.00;77.90;;;;;;5075099;28;20517;-76
2023/04/08 06:55:36;;;;;;;57.13;37.27;;;5.30;77.60;;;;;;5108249;28;20055;-76
2023/04/08 06:58:01;;;;;;;51.07;34.70;;;5.50;77.10;;;;;;5094651;28;20458;-76
2023/04/08 07:00:27;;;;;;;45.80;32.80;;;5.50;76.70;;;;;;5092023;28;20314;-76
2023/04/08 07:02:53;;;;;;;44.97;32.07;;;5.60;76.60;;;;;;5097802;28;20051;-76
2023/04/08 07:05:18;;;;;;;44.37;31.43;;;5.70;76.30;;;;;;5101902;28;20047;-76
2023/04/08 07:07:44;;;;;;;45.37;31.50;;;5.80;76.20;;;;;;5062662;28;20044;-76
2023/04/08 07:10:10;;;;;;;39.87;29.10;;;5.90;76.20;;;;;;5102450;28;20681;-76
2023/04/08 07:12:35;;;;;;;42.03;28.63;;;6.00;76.00;;;;;;5108675;28;20082;-76
2023/04/08 07:15:01;;;;;;;37.10;28.00;;;6.10;75.80;;;;;;5109703;28;20046;-76
2023/04/08 07:17:27;;;;;;;40.03;28.30;;;6.20;75.60;;;;;;5101559;27;20489;-76
2023/04/08 07:19:52;;;;;;;36.90;25.73;;;6.30;75.70;;;;;;5078898;28;20494;-76
2023/04/08 07:22:18;;;;;;;33.80;24.90;;;6.40;75.40;;;;;;5089344;28;20074;-76
2023/04/08 07:24:48;;;;;;;33.27;24.83;;;6.40;75.20;;;;;;5074776;28;20043;-76
2023/04/08 07:27:15;;;;;;;34.17;24.70;;;6.20;75.00;;;;;;5092467;28;20046;-76
2023/04/08 07:29:41;;;;;;;31.73;24.70;;;6.20;75.00;;;;;;5090092;28;20506;-76
2023/04/08 07:32:07;;;;;;;31.80;24.13;;;6.20;75.20;;;;;;5107619;28;20104;-76
2023/04/08 07:34:35;;;;;;;36.07;25.70;;;6.30;74.90;;;;;;5089557;28;20036;-76
2023/04/08 07:37:01;;;;;;;35.07;25.87;;;6.20;74.70;;;;;;5089103;27;20055;-76
2023/04/08 07:39:27;;;;;;;33.97;26.23;;;6.10;74.50;;;;;;5062521;28;20055;-76
2023/04/08 07:41:53;;;;;;;38.60;27.53;;;6.10;74.50;;;;;;5091797;28;20086;-76
2023/04/08 07:44:18;;;;;;;38.17;27.57;;;6.10;74.80;;;;;;5089269;28;20044;-76
2023/04/08 07:46:45;;;;;;;33.30;25.27;;;6.10;74.50;;;;;;5093964;28;20047;-76
2023/04/08 07:49:11;;;;;;;34.30;24.43;;;6.10;74.60;;;;;;5100191;28;20557;-76
2023/04/08 07:51:37;;;;;;;33.63;24.53;;;6.10;74.60;;;;;;5071310;28;20044;-76
2023/04/08 07:54:03;;;;;;;31.60;23.10;;;6.10;74.60;;;;;;5088782;28;20084;-76
2023/04/08 07:56:28;;;;;;;32.30;22.57;;;6.10;74.50;;;;;;5059545;28;20047;-76
2023/04/08 07:58:54;;;;;;;29.57;21.23;;;6.10;74.30;;;;;;5086310;28;20048;-76
2023/04/08 08:01:21;;;;;;;29.87;21.37;;;6.10;74.30;;;;;;5091482;28;20036;-76
2023/04/08 08:03:48;;;;;;;27.80;20.47;;;6.00;74.20;;;;;;5088909;28;20120;-76
2023/04/08 08:06:14;;;;;;;32.63;23.33;;;6.00;74.30;;;;;;5098992;28;20047;-76
2023/04/08 08:08:40;;;;;;;32.20;24.00;;;5.90;74.30;;;;;;5085553;28;20054;-75
2023/04/08 08:11:06;;;;;;;34.13;24.87;;;5.90;74.50;;;;;;5090899;28;20043;-76
2023/04/08 08:13:32;;;;;;;39.20;28.10;;;5.90;74.40;;;;;;5090435;28;20043;-76
2023/04/08 08:15:58;;;;;;;37.30;26.53;;;5.90;74.50;;;;;;5091289;28;20047;-76
2023/04/08 08:18:24;;;;;;;37.83;25.40;;;6.00;74.70;;;;;;5109137;28;20089;-76
2023/04/08 08:20:49;;;;;;;38.77;27.20;;;6.00;74.70;;;;;;5093419;28;20040;-76
2023/04/08 08:23:15;;;;;;;35.27;25.00;;;6.00;74.60;;;;;;5087713;28;20075;-76
2023/04/08 08:25:41;;;;;;;37.37;26.30;;;6.00;74.50;;;;;;5097919;28;20446;-76
2023/04/08 08:28:07;;;;;;;36.03;25.40;;;6.10;74.60;;;;;;5072454;28;20051;-76
2023/04/08 08:30:33;;;;;;;38.57;25.80;;;6.10;74.60;;;;;;5091200;28;20482;-76
2023/04/08 08:32:59;;;;;;;34.73;24.57;;;6.00;74.60;;;;;;5101256;28;20048;-76
2023/04/08 08:35:25;;;;;;;32.80;24.47;;;6.00;74.70;;;;;;5088718;28;20130;-76
2023/04/08 08:37:51;;;;;;;39.73;25.57;;;6.10;74.70;;;;;;5059765;28;20644;-76
2023/04/08 08:40:16;;;;;;;39.83;27.33;;;6.10;74.80;;;;;;5091702;28;20043;-76
2023/04/08 08:42:52;;;;;;;37.37;25.57;;;6.20;74.70;;;;;;5112297;28;20066;-76
2023/04/08 08:45:19;;;;;;;41.43;27.47;;;6.20;74.60;;;;;;5095535;28;20058;-76
2023/04/08 08:47:45;;;;;;;36.10;24.53;;;6.10;74.50;;;;;;5071958;28;20043;-76
2023/04/08 08:50:11;;;;;;;35.37;26.23;;;6.00;74.50;;;;;;5059192;28;20059;-76
2023/04/08 08:52:36;;;;;;;36.93;26.57;;;6.00;74.70;;;;;;5076542;28;20071;-76
2023/04/08 08:55:02;;;;;;;39.80;28.17;;;6.00;74.80;;;;;;5113557;28;20050;-77
2023/04/08 08:57:28;;;;;;;42.67;29.03;;;6.00;74.70;;;;;;5089904;28;20117;-76
2023/04/08 08:59:54;;;;;;;43.53;29.90;;;6.00;74.70;;;;;;5103308;28;20040;-76
2023/04/08 09:02:30;;;;;;;42.97;30.60;;;6.00;74.90;;;;;;5089397;28;20511;-76
2023/04/08 09:05:03;;;;;;;43.07;30.13;;;6.00;75.00;;;;;;5109295;28;20047;-76
2023/04/08 09:07:39;;;;;;;38.07;27.33;;;6.00;75.10;;;;;;5075520;28;20056;-76
2023/04/08 09:10:06;;;;;;;32.77;23.03;;;6.10;75.00;;;;;;5112312;28;20066;-76
2023/04/08 09:12:31;;;;;;;30.40;21.63;;;6.10;75.10;;;;;;5093045;28;20493;-76
2023/04/08 09:15:08;;;;;;;29.00;20.57;;;6.10;75.00;;;;;;5094099;28;20050;-76
2023/04/08 09:17:36;;;;;;;28.37;21.30;;;6.20;75.00;;;;;;5094523;27;20138;-76
2023/04/08 09:20:13;;;;;;;29.50;21.10;;;6.20;75.00;;;;;;5106907;28;20483;-76
2023/04/08 09:22:57;;;;;;;27.03;17.90;;;6.20;75.00;;;;;;5075250;28;20044;-76
2023/04/08 09:25:27;;;;;;;27.77;18.50;;;6.30;75.20;;;;;;5092791;28;20140;-76
2023/04/08 09:27:53;;;;;;;24.50;18.23;;;6.30;75.00;;;;;;5072854;28;20072;-76
2023/04/08 09:30:23;;;;;;;24.53;17.60;;;6.40;75.10;;;;;;5111573;28;20086;-76
2023/04/08 09:32:50;;;;;;;25.67;19.43;;;6.50;75.20;;;;;;5092506;28;20032;-76
2023/04/08 09:35:18;;;;;;;26.80;19.43;;;6.50;74.90;;;;;;5075242;28;20036;-76
2023/04/08 09:37:44;;;;;;;25.80;18.53;;;6.50;75.00;;;;;;5060451;28;20086;-76
2023/04/08 09:40:10;;;;;;;26.30;19.07;;;6.60;75.00;;;;;;5102013;28;20044;-76
2023/04/08 09:42:39;;;;;;;28.93;20.00;;;6.60;74.90;;;;;;5092554;28;20077;-76
2023/04/08 09:45:07;;;;;;;29.53;20.23;;;6.60;74.90;;;;;;5093671;28;20036;-76
2023/04/08 09:48:15;;;;;;;29.37;19.43;;;6.60;74.90;;;;;;5076466;28;20486;-76
2023/04/08 09:50:48;;;;;;;31.90;21.37;;;6.60;74.80;;;;;;5066562;28;20052;-76
2023/04/08 09:53:18;;;;;;;29.17;22.10;;;6.70;74.80;;;;;;5108694;28;20126;-76
2023/04/08 09:55:49;;;;;;;30.30;21.73;;;6.70;74.80;;;;;;5111287;28;20040;-76
2023/04/08 09:58:20;;;;;;;29.60;21.15;;;6.70;74.90;;;;;;5076222;28;20044;-76
2023/04/08 10:00:49;;;;;;;30.10;21.63;;;6.80;74.80;;;;;;5093364;28;20043;-76
2023/04/08 10:03:39;;;;;;;30.73;22.23;;;6.80;74.70;;;;;;5102952;28;20044;-76
2023/04/08 10:06:07;;;;;;;35.37;25.60;;;6.90;74.80;;;;;;5070317;28;20074;-75
2023/04/08 10:08:33;;;;;;;35.00;25.13;;;6.90;74.70;;;;;;5082892;28;20481;-76
2023/04/08 10:10:59;;;;;;;37.40;25.50;;;7.00;74.80;;;;;;5109411;28;20397;-76
2023/04/08 10:13:27;;;;;;;34.73;25.97;;;7.10;74.70;;;;;;5090386;28;20043;-76
2023/04/08 10:16:21;;;;;;;34.73;25.20;;;7.20;74.60;;;;;;5109122;28;20047;-76
2023/04/08 10:18:54;;;;;;;36.17;26.27;;;7.20;74.60;;;;;;5075438;28;20052;-76
2023/04/08 10:21:39;;;;;;;41.93;29.30;;;7.30;74.60;;;;;;5111349;28;20055;-76
2023/04/08 10:24:11;;;;;;;36.80;26.60;;;7.50;74.70;;;;;;5091128;28;20054;-75
2023/04/08 10:26:44;;;;;;;37.60;25.33;;;7.50;74.60;;;;;;5096255;28;20036;-76
2023/04/08 10:29:18;;;;;;;40.57;27.97;;;7.50;74.20;;;;;;5090572;28;20043;-76
2023/04/08 10:31:49;;;;;;;36.57;25.77;;;7.50;74.30;;;;;;5075202;28;20055;-76
2023/04/08 10:34:26;;;;;;;37.22;26.92;;;7.50;74.30;;;;;;5097028;28;20097;-76
2023/04/08 10:36:53;;;;;;;36.53;27.13;;;7.50;74.50;;;;;;5072648;28;20044;-76
2023/04/08 10:39:19;;;;;;;37.60;26.33;;;7.50;74.60;;;;;;5103009;28;20039;-76
2023/04/08 10:41:46;;;;;;;37.40;25.87;;;7.60;74.50;;;;;;5110714;28;20058;-76
2023/04/08 10:44:20;;;;;;;34.97;25.00;;;7.60;74.50;;;;;;5109142;28;20495;-76
2023/04/08 10:46:46;;;;;;;38.67;26.60;;;7.70;74.60;;;;;;5077146;28;20062;-76
2023/04/08 10:49:13;;;;;;;35.13;24.53;;;7.80;74.60;;;;;;5088535;28;20043;-76
2023/04/08 10:51:41;;;;;;;37.17;25.97;;;7.80;74.60;;;;;;5110204;28;20143;-76
2023/04/08 10:54:09;;;;;;;35.43;24.97;;;7.80;74.60;;;;;;5108937;28;20558;-76
2023/04/08 10:56:42;;;;;;;37.97;25.50;;;7.90;74.50;;;;;;5078162;28;20044;-76
2023/04/08 10:59:08;;;;;;;31.90;21.20;;;7.90;74.50;;;;;;5109065;28;20051;-76
2023/04/08 11:01:40;;;;;;;35.27;22.60;;;7.90;74.50;;;;;;5110054;28;20475;-76
2023/04/08 11:04:18;;;;;;;36.13;23.77;;;7.90;74.60;;;;;;5101718;28;20055;-76
2023/04/08 11:06:46;;;;;;;38.40;23.30;;;7.90;74.60;;;;;;5076638;28;20048;-75
2023/04/08 11:09:13;;;;;;;41.50;24.40;;;8.00;74.60;;;;;;5107637;28;20074;-76
2023/04/08 11:11:41;;;;;;;40.13;24.63;;;8.00;74.60;;;;;;5109177;28;20049;-76
2023/04/08 11:14:07;;;;;;;45.73;29.73;;;8.00;74.60;;;;;;5108673;28;20138;-76
2023/04/08 11:16:34;;;;;;;44.60;28.53;;;8.00;74.50;;;;;;5077731;27;20557;-76
2023/04/08 11:19:03;;;;;;;42.03;29.30;;;7.80;74.50;;;;;;5115752;27;20547;-76
2023/04/08 11:21:30;;;;;;;45.70;29.77;;;7.80;74.50;;;;;;5091302;28;20450;-76
2023/04/08 11:23:56;;;;;;;47.03;31.33;;;7.80;74.70;;;;;;5108878;28;20054;-76
2023/04/08 11:26:23;;;;;;;49.20;31.13;;;7.90;74.70;;;;;;5069868;28;20040;-75
2023/04/08 11:28:50;;;;;;;46.40;29.80;;;7.90;74.70;;;;;;5087876;28;20044;-76
2023/04/08 11:31:20;;;;;;;46.77;29.83;;;8.00;74.60;;;;;;5091790;28;20044;-76
2023/04/08 11:33:47;;;;;;;46.63;28.17;;;8.00;74.70;;;;;;5095282;28;20043;-76
2023/04/08 11:36:13;;;;;;;43.93;27.47;;;8.00;74.80;;;;;;5100054;28;20055;-75
2023/04/08 11:38:40;;;;;;;40.03;27.47;;;8.10;74.60;;;;;;5078813;28;20710;-76
2023/04/08 11:41:06;;;;;;;39.60;27.77;;;8.20;74.60;;;;;;5109375;28;20055;-76
2023/04/08 11:43:31;;;;;;;42.83;27.67;;;8.30;74.60;;;;;;5108376;28;20497;-76
2023/04/08 11:45:57;;;;;;;42.73;27.60;;;8.30;74.40;;;;;;5108118;28;20040;-76
2023/04/08 11:48:23;;;;;;;40.77;27.77;;;8.30;74.40;;;;;;5067819;28;20051;-76
2023/04/08 11:51:02;;;;;;;42.53;27.33;;;8.40;74.30;;;;;;5065816;28;20398;-76
2023/04/08 11:53:28;;;;;;;45.00;29.07;;;8.40;74.30;;;;;;5085141;28;20081;-76
2023/04/08 11:55:54;;;;;;;43.57;28.07;;;8.50;74.20;;;;;;5107964;28;20240;-76
2023/04/08 11:58:20;;;;;;;43.13;28.60;;;8.50;74.20;;;;;;5092549;28;20043;-76
2023/04/08 12:00:46;;;;;;;41.97;28.80;;;8.50;74.20;;;;;;5090977;28;20101;-76
2023/04/08 12:03:12;;;;;;;42.03;28.20;;;8.60;74.20;;;;;;5105834;28;20047;-76
2023/04/08 12:05:38;;;;;;;48.60;28.07;;;8.60;74.20;;;;;;5091554;28;20485;-76
2023/04/08 12:08:04;;;;;;;46.37;28.60;;;8.60;74.10;;;;;;5075198;28;20172;-76
2023/04/08 12:10:30;;;;;;;44.50;27.80;;;8.60;74.10;;;;;;5057035;28;20105;-76
2023/04/08 12:12:55;;;;;;;44.17;28.53;;;8.60;74.20;;;;;;5108284;28;20056;-76
2023/04/08 12:15:21;;;;;;;45.90;29.10;;;8.60;74.10;;;;;;5091372;28;20111;-76
2023/04/08 12:17:47;;;;;;;47.60;29.33;;;8.60;74.10;;;;;;5068742;28;20055;-76
2023/04/08 12:20:13;;;;;;;41.50;27.10;;;8.60;74.00;;;;;;5104525;28;20203;-76
2023/04/08 12:22:39;;;;;;;43.20;27.23;;;8.60;74.00;;;;;;5112136;28;20126;-76
2023/04/08 12:25:05;;;;;;;35.93;25.23;;;8.60;74.10;;;;;;5095083;28;20156;-76
2023/04/08 12:27:34;;;;;;;38.00;27.53;;;8.60;74.20;;;;;;5065313;28;20048;-76
2023/04/08 12:30:01;;;;;;;35.33;25.17;;;8.60;74.20;;;;;;5075453;28;20044;-76
2023/04/08 12:32:27;;;;;;;37.77;25.97;;;8.60;73.90;;;;;;5104086;28;20433;-76
2023/04/08 12:34:53;;;;;;;37.70;24.63;;;8.60;74.00;;;;;;5113220;28;20050;-76
2023/04/08 12:37:19;;;;;;;35.57;24.53;;;8.70;74.00;;;;;;5098467;28;20078;-77